createdAt,value
2019-04-01T00:00:32.929Z,58.85
2019-04-01T00:02:59.653Z,58.99
2019-04-01T00:05:26.366Z,59.02
2019-04-01T00:07:53.136Z,59.21
2019-04-01T00:10:20.773Z,59.38
2019-04-01T00:12:47.438Z,59.45
2019-04-01T00:15:14.141Z,59.20
2019-04-01T00:17:40.810Z,60.10
2019-04-01T00:20:07.448Z,59.67
2019-04-01T00:22:34.322Z,59.61
2019-04-01T00:25:01.132Z,59.74
2019-04-01T00:27:27.775Z,60.51
2019-04-01T00:29:54.476Z,60.08
2019-04-01T00:32:21.097Z,61.27
2019-04-01T00:34:47.772Z,60.57
2019-04-01T00:37:14.444Z,61.12
2019-04-01T00:39:41.158Z,60.95
2019-04-01T00:42:15.995Z,60.65
2019-04-01T00:44:42.703Z,60.62
2019-04-01T00:47:09.313Z,60.50
2019-04-01T00:49:36.113Z,60.10
2019-04-01T00:52:02.843Z,60.43
2019-04-01T00:54:29.617Z,60.14
2019-04-01T00:56:56.319Z,60.42
2019-04-01T00:59:23.031Z,60.44
2019-04-01T01:01:49.699Z,60.59
2019-04-01T01:04:16.440Z,60.27
2019-04-01T01:06:43.178Z,60.34
2019-04-01T01:09:09.875Z,60.28
2019-04-01T01:11:36.575Z,60.95
2019-04-01T01:14:03.591Z,60.77
2019-04-01T01:16:30.235Z,60.30
2019-04-01T01:18:57.856Z,60.80
2019-04-01T01:21:25.546Z,62.14
2019-04-01T01:23:52.180Z,61.60
2019-04-01T01:26:18.886Z,61.67
2019-04-01T01:28:45.590Z,61.01
2019-04-01T01:31:12.228Z,60.87
2019-04-01T01:33:38.880Z,61.09
2019-04-01T01:36:05.591Z,60.65
2019-04-01T01:38:32.198Z,60.55
2019-04-01T01:40:58.878Z,61.12
2019-04-01T01:43:26.566Z,61.77
2019-04-01T01:45:53.254Z,61.74
2019-04-01T01:48:19.994Z,61.92
2019-04-01T01:50:46.698Z,61.60
2019-04-01T01:53:13.323Z,61.85
2019-04-01T01:55:39.971Z,61.49
2019-04-01T01:58:06.716Z,61.56
2019-04-01T02:00:33.803Z,61.38
2019-04-01T02:03:00.431Z,61.76
2019-04-01T02:05:27.112Z,61.74
2019-04-01T02:07:53.718Z,61.61
2019-04-01T02:10:20.405Z,61.66
2019-04-01T02:12:47.067Z,62.21
2019-04-01T02:15:13.815Z,62.55
2019-04-01T02:17:40.534Z,62.65
2019-04-01T02:20:08.111Z,62.74
2019-04-01T02:22:35.839Z,65.19
2019-04-01T02:25:02.709Z,64.12
2019-04-01T02:27:29.379Z,64.24
2019-04-01T02:29:56.123Z,63.83
2019-04-01T02:32:22.845Z,63.09
2019-04-01T02:34:49.654Z,62.93
2019-04-01T02:37:16.304Z,62.63
2019-04-01T02:39:42.987Z,63.61
2019-04-01T02:42:09.790Z,63.38
2019-04-01T02:44:36.484Z,63.69
2019-04-01T02:47:03.197Z,63.98
2019-04-01T02:49:29.890Z,63.76
2019-04-01T02:51:56.499Z,63.65
2019-04-01T02:54:23.168Z,63.33
2019-04-01T02:56:49.836Z,64.50
2019-04-01T02:59:16.466Z,63.96
2019-04-01T03:01:43.182Z,63.74
2019-04-01T03:04:09.861Z,63.34
2019-04-01T03:06:36.536Z,63.32
2019-04-01T03:09:05.628Z,64.53
2019-04-01T03:11:32.324Z,64.22
2019-04-01T03:13:58.947Z,64.09
2019-04-01T03:16:25.649Z,65.10
2019-04-01T03:18:52.338Z,65.07
2019-04-01T03:21:19.180Z,65.19
2019-04-01T03:23:45.885Z,64.53
2019-04-01T03:26:12.588Z,64.30
2019-04-01T03:28:39.196Z,64.90
2019-04-01T03:31:05.878Z,64.38
2019-04-01T03:33:32.593Z,63.93
2019-04-01T03:35:59.198Z,63.94
2019-04-01T03:38:28.133Z,63.92
2019-04-01T03:40:54.420Z,64.46
2019-04-01T03:43:21.032Z,65.09
2019-04-01T03:45:47.685Z,65.12
2019-04-01T03:48:14.423Z,66.34
2019-04-01T03:50:41.066Z,66.92
2019-04-01T03:53:07.705Z,65.93
2019-04-01T03:55:34.636Z,66.88
2019-04-01T03:58:01.262Z,66.17
2019-04-01T04:00:27.873Z,65.15
2019-04-01T04:02:54.680Z,65.26
2019-04-01T04:05:21.402Z,65.58
2019-04-01T04:07:48.049Z,65.92
2019-04-01T04:10:14.764Z,65.02
2019-04-01T04:12:41.423Z,64.78
2019-04-01T04:15:08.277Z,64.76
2019-04-01T04:17:35.002Z,66.06
2019-04-01T04:20:01.718Z,66.16
2019-04-01T04:22:29.249Z,65.28
2019-04-01T04:24:56.115Z,64.96
2019-04-01T04:27:22.774Z,65.62
2019-04-01T04:29:49.609Z,64.90
2019-04-01T04:32:16.212Z,66.03
2019-04-01T04:34:42.835Z,66.17
2019-04-01T04:37:09.577Z,67.07
2019-04-01T04:39:36.206Z,67.00
2019-04-01T04:42:02.873Z,66.03
2019-04-01T04:44:29.538Z,66.77
2019-04-01T04:46:56.217Z,66.53
2019-04-01T04:49:22.920Z,66.49
2019-04-01T04:51:49.613Z,68.31
2019-04-01T04:54:16.302Z,67.68
2019-04-01T04:56:42.991Z,67.55
2019-04-01T04:59:09.720Z,67.64
2019-04-01T05:01:36.339Z,67.23
2019-04-01T05:04:03.011Z,67.01
2019-04-01T05:06:29.690Z,67.37
2019-04-01T05:08:56.451Z,67.26
2019-04-01T05:11:23.133Z,67.95
2019-04-01T05:13:50.022Z,68.12
2019-04-01T05:16:16.634Z,67.60
2019-04-01T05:18:43.305Z,67.46
2019-04-01T05:21:11.291Z,67.70
2019-04-01T05:23:39.571Z,68.25
2019-04-01T05:26:08.274Z,67.48
2019-04-01T05:28:36.993Z,68.14
2019-04-01T05:31:05.489Z,68.36
2019-04-01T05:33:33.448Z,68.60
2019-04-01T05:36:00.647Z,68.69
2019-04-01T05:38:27.282Z,68.52
2019-04-01T05:40:53.999Z,68.21
2019-04-01T05:43:20.685Z,67.92
2019-04-01T05:45:47.322Z,67.94
2019-04-01T05:48:15.585Z,67.75
2019-04-01T05:50:42.270Z,67.62
2019-04-01T05:53:08.910Z,67.56
2019-04-01T05:55:35.564Z,67.54
2019-04-01T05:58:02.247Z,66.87
2019-04-01T06:00:39.742Z,66.50
2019-04-01T06:03:06.503Z,66.07
2019-04-01T06:05:33.189Z,65.15
2019-04-01T06:07:59.891Z,64.71
2019-04-01T06:10:26.526Z,64.60
2019-04-01T06:12:53.256Z,64.63
2019-04-01T06:15:19.910Z,64.77
2019-04-01T06:17:46.531Z,63.97
2019-04-01T06:20:13.198Z,63.67
2019-04-01T06:22:39.830Z,63.83
2019-04-01T06:25:06.764Z,64.75
2019-04-01T06:27:33.692Z,63.83
2019-04-01T06:30:00.421Z,62.18
2019-04-01T06:32:27.128Z,62.87
2019-04-01T06:34:53.862Z,60.87
2019-04-01T06:37:20.477Z,61.04
2019-04-01T06:39:47.158Z,60.00
2019-04-01T06:42:13.852Z,59.60
2019-04-01T06:44:40.610Z,60.40
2019-04-01T06:47:08.413Z,59.76
2019-04-01T06:49:35.348Z,60.34
2019-04-01T06:52:02.065Z,59.75
2019-04-01T06:54:28.940Z,58.99
2019-04-01T06:56:55.727Z,59.28
2019-04-01T06:59:22.428Z,57.75
2019-04-01T07:01:49.121Z,57.02
2019-04-01T07:04:15.834Z,58.52
2019-04-01T07:06:42.573Z,56.22
2019-04-01T07:09:09.910Z,54.87
2019-04-01T07:11:36.774Z,54.47
2019-04-01T07:14:04.131Z,53.68
2019-04-01T07:16:31.891Z,52.34
2019-04-01T07:18:58.571Z,53.01
2019-04-01T07:21:54.454Z,52.28
2019-04-01T07:24:45.664Z,50.82
2019-04-01T07:27:34.028Z,49.52
2019-04-01T07:30:10.484Z,50.54
2019-04-01T07:32:39.163Z,49.68
2019-04-01T07:35:05.995Z,49.60
2019-04-01T07:37:32.593Z,46.66
2019-04-01T07:39:59.421Z,48.29
2019-04-01T07:42:26.123Z,46.33
2019-04-01T07:44:53.054Z,45.57
2019-04-01T07:47:20.007Z,44.80
2019-04-01T07:49:47.216Z,44.99
2019-04-01T07:52:14.923Z,44.17
2019-04-01T07:54:41.762Z,42.95
2019-04-01T07:57:08.367Z,42.66
2019-04-01T07:59:35.151Z,41.79
2019-04-01T08:02:02.076Z,41.06
2019-04-01T08:04:28.928Z,41.74
2019-04-01T08:06:55.685Z,41.67
2019-04-01T08:09:22.531Z,40.61
2019-04-01T08:11:50.195Z,39.40
2019-04-01T08:14:17.090Z,39.16
2019-04-01T08:16:43.791Z,38.08
2019-04-01T08:19:10.502Z,38.69
2019-04-01T08:21:37.114Z,38.78
2019-04-01T08:24:03.929Z,39.21
2019-04-01T08:26:30.550Z,38.74
2019-04-01T08:28:57.341Z,37.63
2019-04-01T08:31:24.108Z,38.05
2019-04-01T08:33:51.001Z,38.38
2019-04-01T08:36:18.344Z,39.82
2019-04-01T08:38:45.038Z,39.13
2019-04-01T08:41:11.684Z,39.34
2019-04-01T08:43:38.767Z,38.96
2019-04-01T08:46:05.465Z,38.20
2019-04-01T08:48:35.418Z,40.25
2019-04-01T08:51:01.152Z,39.38
2019-04-01T08:53:28.169Z,39.14
2019-04-01T08:56:00.531Z,36.32
2019-04-01T08:58:23.443Z,36.64
2019-04-01T09:00:50.091Z,37.89
2019-04-01T09:03:16.722Z,37.01
2019-04-01T09:05:43.522Z,37.42
2019-04-01T09:08:10.389Z,36.56
2019-04-01T09:10:37.615Z,36.10
2019-04-01T09:13:05.513Z,36.10
2019-04-01T09:15:32.327Z,35.19
2019-04-01T09:17:58.986Z,35.45
2019-04-01T09:20:25.764Z,34.13
2019-04-01T09:22:52.798Z,37.71
2019-04-01T09:25:20.009Z,32.93
2019-04-01T09:27:47.633Z,33.15
2019-04-01T09:30:18.492Z,32.79
2019-04-01T09:32:43.495Z,35.43
2019-04-01T09:35:10.493Z,32.91
2019-04-01T09:37:37.483Z,35.14
2019-04-01T09:40:05.996Z,32.53
2019-04-01T09:42:32.624Z,33.22
2019-04-01T09:44:59.362Z,33.45
2019-04-01T09:47:26.066Z,29.86
2019-04-01T09:49:52.790Z,30.92
2019-04-01T09:52:19.468Z,31.32
2019-04-01T09:54:46.155Z,31.83
2019-04-01T09:57:17.772Z,30.72
2019-04-01T09:59:41.496Z,30.84
2019-04-01T10:02:08.143Z,29.03
2019-04-01T10:04:34.799Z,29.14
2019-04-01T10:07:01.480Z,29.14
2019-04-01T10:09:28.198Z,30.12
2019-04-01T10:11:54.930Z,26.66
2019-04-01T10:14:21.597Z,30.16
2019-04-01T10:16:48.293Z,30.18
2019-04-01T10:19:14.958Z,26.53
2019-04-01T10:21:45.068Z,27.51
2019-04-01T10:24:10.246Z,25.17
2019-04-01T10:26:36.934Z,26.81
2019-04-01T10:29:03.633Z,27.12
2019-04-01T10:31:30.491Z,27.88
2019-04-01T10:33:58.196Z,29.22
2019-04-01T10:36:24.932Z,26.94
2019-04-01T10:38:51.531Z,27.91
2019-04-01T10:41:18.155Z,30.28
2019-04-01T10:43:44.869Z,31.75
2019-04-01T10:46:12.377Z,28.62
2019-04-01T10:48:39.218Z,29.47
2019-04-01T10:51:07.098Z,26.69
2019-04-01T10:53:33.777Z,25.13
2019-04-01T10:56:00.412Z,25.88
2019-04-01T10:58:27.330Z,28.19
2019-04-01T11:00:53.980Z,26.55
2019-04-01T11:03:20.663Z,28.05
2019-04-01T11:05:47.436Z,26.87
2019-04-01T11:08:14.214Z,23.16
2019-04-01T11:10:40.854Z,24.59
2019-04-01T11:13:07.563Z,24.58
2019-04-01T11:15:34.339Z,26.04
2019-04-01T11:18:00.986Z,27.19
2019-04-01T11:20:27.687Z,26.75
2019-04-01T11:22:54.290Z,26.09
2019-04-01T11:25:20.959Z,26.23
2019-04-01T11:27:47.663Z,25.80
2019-04-01T11:30:14.612Z,26.66
2019-04-01T11:32:41.329Z,24.50
2019-04-01T11:35:08.160Z,25.71
2019-04-01T11:37:36.058Z,25.58
2019-04-01T11:40:11.052Z,25.46
2019-04-01T11:42:35.850Z,24.61
2019-04-01T11:45:06.404Z,28.43
2019-04-01T11:47:33.329Z,25.51
2019-04-01T11:50:00.096Z,23.90
2019-04-01T11:52:27.114Z,22.80
2019-04-01T11:54:54.198Z,24.06
2019-04-01T11:57:20.988Z,24.06
2019-04-01T11:59:47.631Z,25.21
2019-04-01T12:02:14.489Z,22.43
2019-04-01T12:04:41.329Z,23.99
2019-04-01T12:07:08.264Z,23.12
2019-04-01T12:09:35.153Z,23.72
2019-04-01T12:12:03.309Z,24.47
2019-04-01T12:14:30.259Z,25.52
2019-04-01T12:16:57.004Z,26.04
2019-04-01T12:19:23.891Z,24.05
2019-04-01T12:21:51.330Z,24.05
2019-04-01T12:24:18.291Z,25.46
2019-04-01T12:26:45.212Z,26.34
2019-04-01T12:29:12.552Z,24.91
2019-04-01T12:31:40.435Z,25.55
2019-04-01T12:34:07.181Z,23.57
2019-04-01T12:36:35.029Z,22.05
2019-04-01T12:39:01.742Z,23.50
2019-04-01T12:41:30.292Z,22.56
2019-04-01T12:43:56.922Z,26.90
2019-04-01T12:46:23.594Z,24.26
2019-04-01T12:48:50.328Z,22.32
2019-04-01T12:51:17.064Z,23.29
2019-04-01T12:53:43.777Z,25.54
2019-04-01T12:56:10.491Z,25.54
2019-04-01T12:58:39.401Z,23.01
2019-04-01T13:01:06.137Z,24.31
2019-04-01T13:03:32.879Z,25.13
2019-04-01T13:05:59.620Z,24.74
2019-04-01T13:08:26.259Z,25.57
2019-04-01T13:10:56.382Z,26.43
2019-04-01T13:13:22.814Z,23.07
2019-04-01T13:15:49.686Z,23.07
2019-04-01T13:18:16.388Z,24.31
2019-04-01T13:20:42.996Z,24.02
2019-04-01T13:23:09.588Z,24.10
2019-04-01T13:25:36.287Z,24.65
2019-04-01T13:28:02.910Z,24.52
2019-04-01T13:30:29.562Z,25.41
2019-04-01T13:32:56.213Z,23.96
2019-04-01T13:35:23.010Z,26.81
2019-04-01T13:37:49.838Z,24.90
2019-04-01T13:40:19.388Z,24.49
2019-04-01T13:42:45.200Z,23.65
2019-04-01T13:45:12.436Z,22.93
2019-04-01T13:47:41.319Z,24.27
2019-04-01T13:50:07.826Z,23.39
2019-04-01T13:52:34.443Z,23.32
2019-04-01T13:55:01.131Z,23.85
2019-04-01T13:57:27.820Z,24.94
2019-04-01T13:59:54.653Z,21.87
2019-04-01T14:02:22.468Z,22.75
2019-04-01T14:04:49.185Z,23.53
2019-04-01T14:07:15.891Z,23.79
2019-04-01T14:09:42.551Z,23.73
2019-04-01T14:12:09.251Z,23.83
2019-04-01T14:14:35.959Z,23.47
2019-04-01T14:17:02.917Z,24.03
2019-04-01T14:19:29.560Z,24.76
2019-04-01T14:21:56.226Z,23.42
2019-04-01T14:24:22.904Z,23.63
2019-04-01T14:26:49.565Z,22.83
2019-04-01T14:29:16.772Z,22.29
2019-04-01T14:31:43.624Z,23.18
2019-04-01T14:34:22.897Z,23.64
2019-04-01T14:36:47.057Z,23.05
2019-04-01T14:39:13.919Z,23.87
2019-04-01T14:41:40.520Z,22.78
2019-04-01T14:44:07.253Z,23.74
2019-04-01T14:46:33.928Z,23.03
2019-04-01T14:49:02.744Z,24.48
2019-04-01T14:51:29.823Z,23.95
2019-04-01T14:53:56.532Z,23.91
2019-04-01T14:56:23.151Z,25.32
2019-04-01T14:58:49.821Z,24.31
2019-04-01T15:01:16.505Z,24.28
2019-04-01T15:03:43.202Z,25.09
2019-04-01T15:06:09.904Z,25.51
2019-04-01T15:08:36.703Z,25.53
2019-04-01T15:11:03.380Z,25.04
2019-04-01T15:13:30.018Z,25.12
2019-04-01T15:15:56.715Z,26.07
2019-04-01T15:18:23.346Z,25.06
2019-04-01T15:20:51.035Z,24.97
2019-04-01T15:23:17.703Z,25.69
2019-04-01T15:25:44.359Z,24.84
2019-04-01T15:28:11.025Z,25.29
2019-04-01T15:30:37.742Z,25.01
2019-04-01T15:33:04.490Z,26.06
2019-04-01T15:35:31.164Z,25.84
2019-04-01T15:37:57.897Z,25.91
2019-04-01T15:40:24.520Z,25.78
2019-04-01T15:42:51.330Z,25.92
2019-04-01T15:45:18.003Z,26.66
2019-04-01T15:47:44.822Z,26.20
2019-04-01T15:50:27.265Z,26.26
2019-04-01T15:52:42.022Z,26.20
2019-04-01T15:55:09.064Z,26.56
2019-04-01T15:57:35.718Z,26.20
2019-04-01T16:00:04.000Z,26.13
2019-04-01T16:02:30.691Z,26.66
2019-04-01T16:04:57.396Z,27.25
2019-04-01T16:07:24.103Z,26.80
2019-04-01T16:09:51.146Z,27.00
2019-04-01T16:12:18.648Z,27.88
2019-04-01T16:14:45.359Z,27.11
2019-04-01T16:17:12.979Z,27.49
2019-04-01T16:19:39.596Z,27.82
2019-04-01T16:22:06.253Z,28.25
2019-04-01T16:24:32.843Z,27.84
2019-04-01T16:26:59.463Z,27.42
2019-04-01T16:29:26.129Z,28.09
2019-04-01T16:31:55.392Z,27.72
2019-04-01T16:34:21.314Z,28.52
2019-04-01T16:36:47.986Z,28.78
2019-04-01T16:39:14.833Z,28.60
2019-04-01T16:41:41.529Z,27.50
2019-04-01T16:44:08.194Z,27.60
2019-04-01T16:46:34.868Z,28.11
2019-04-01T16:49:01.533Z,27.84
2019-04-01T16:51:28.263Z,28.04
2019-04-01T16:53:56.239Z,28.04
2019-04-01T16:56:23.070Z,28.66
2019-04-01T16:58:49.793Z,28.99
2019-04-01T17:01:16.452Z,30.37
2019-04-01T17:03:43.070Z,31.11
2019-04-01T17:06:10.774Z,31.82
2019-04-01T17:08:39.154Z,31.43
2019-04-01T17:11:05.967Z,31.29
2019-04-01T17:13:32.637Z,31.82
2019-04-01T17:16:01.576Z,31.94
2019-04-01T17:18:28.051Z,32.31
2019-04-01T17:20:54.736Z,32.74
2019-04-01T17:23:21.426Z,32.90
2019-04-01T17:25:48.142Z,33.19
2019-04-01T17:28:14.881Z,33.72
2019-04-01T17:30:41.492Z,33.85
2019-04-01T17:33:08.697Z,34.00
2019-04-01T17:35:35.646Z,34.35
2019-04-01T17:38:02.333Z,34.52
2019-04-01T17:40:29.096Z,34.82
2019-04-01T17:42:55.844Z,34.94
2019-04-01T17:45:28.982Z,34.91
2019-04-01T17:47:55.606Z,35.22
2019-04-01T17:50:22.312Z,35.48
2019-04-01T17:52:48.920Z,35.73
2019-04-01T17:55:17.042Z,36.14
2019-04-01T17:57:43.975Z,36.32
2019-04-01T18:00:15.876Z,37.05
2019-04-01T18:02:42.467Z,36.89
2019-04-01T18:05:12.742Z,36.66
2019-04-01T18:07:39.331Z,36.76
2019-04-01T18:10:06.026Z,36.56
2019-04-01T18:12:32.690Z,36.93
2019-04-01T18:14:59.304Z,37.71
2019-04-01T18:17:25.926Z,37.16
2019-04-01T18:19:53.154Z,37.43
2019-04-01T18:22:19.840Z,38.30
2019-04-01T18:24:46.489Z,38.38
2019-04-01T18:27:14.141Z,38.38
2019-04-01T18:29:40.906Z,38.60
2019-04-01T18:32:12.807Z,38.79
2019-04-01T18:34:39.600Z,39.07
2019-04-01T18:37:44.618Z,39.34
2019-04-01T18:40:15.671Z,40.02
2019-04-01T18:42:53.632Z,40.43
2019-04-01T18:45:20.327Z,40.55
2019-04-01T18:47:47.057Z,39.71
2019-04-01T18:50:14.406Z,39.76
2019-04-01T18:52:41.443Z,39.83
2019-04-01T18:55:08.346Z,39.91
2019-04-01T18:57:35.059Z,40.13
2019-04-01T19:00:01.770Z,40.52
2019-04-01T19:02:28.580Z,40.27
2019-04-01T19:04:55.175Z,40.42
2019-04-01T19:07:22.165Z,40.69
2019-04-01T19:09:48.992Z,41.19
2019-04-01T19:12:15.744Z,40.98
2019-04-01T19:14:42.568Z,41.74
2019-04-01T19:17:09.309Z,41.93
2019-04-01T19:19:35.919Z,42.31
2019-04-01T19:22:02.859Z,42.14
2019-04-01T19:24:29.592Z,42.58
2019-04-01T19:26:56.184Z,42.90
2019-04-01T19:29:22.809Z,43.13
2019-04-01T19:31:51.252Z,43.18
2019-04-01T19:34:18.091Z,43.27
2019-04-01T19:37:04.483Z,43.53
2019-04-01T19:39:35.819Z,43.34
2019-04-01T19:42:02.506Z,44.07
2019-04-01T19:44:29.245Z,43.69
2019-04-01T19:46:56.083Z,43.70
2019-04-01T19:49:23.033Z,43.79
2019-04-01T19:51:49.970Z,43.36
2019-04-01T19:54:16.714Z,44.39
2019-04-01T19:56:43.759Z,44.15
2019-04-01T19:59:10.394Z,44.25
2019-04-01T20:01:37.231Z,45.07
2019-04-01T20:04:03.974Z,45.56
2019-04-01T20:06:30.718Z,45.97
2019-04-01T20:08:57.357Z,46.20
2019-04-01T20:11:24.189Z,46.41
2019-04-01T20:13:54.832Z,46.86
2019-04-01T20:16:21.294Z,46.82
2019-04-01T20:19:03.253Z,47.26
2019-04-01T20:24:56.328Z,47.41
2019-04-01T20:27:25.119Z,47.74
2019-04-01T20:29:51.751Z,47.99
2019-04-01T20:32:19.976Z,48.18
2019-04-01T20:34:56.799Z,48.19
2019-04-01T20:37:15.761Z,48.18
2019-04-01T20:39:42.506Z,49.31
2019-04-01T20:42:09.442Z,49.17
2019-04-01T20:44:36.184Z,49.32
2019-04-01T20:47:03.029Z,49.32
2019-04-01T20:49:30.279Z,49.47
2019-04-01T20:51:57.318Z,49.32
2019-04-01T20:54:24.062Z,49.60
2019-04-01T20:56:50.698Z,49.77
2019-04-01T20:59:17.437Z,50.03
2019-04-01T21:01:44.184Z,49.89
2019-04-01T21:04:10.914Z,50.29
2019-04-01T21:06:37.661Z,50.65
2019-04-01T21:09:07.371Z,50.59
2019-04-01T21:11:34.007Z,50.72
2019-04-01T21:14:03.124Z,51.17
2019-04-01T21:16:30.047Z,50.76
2019-04-01T21:18:56.782Z,50.94
2019-04-01T21:21:23.537Z,51.24
2019-04-01T21:23:50.271Z,51.26
2019-04-01T21:26:16.896Z,51.47
2019-04-01T21:28:43.534Z,52.19
2019-04-01T21:31:10.271Z,52.34
2019-04-01T21:33:36.908Z,52.55
2019-04-01T21:36:03.546Z,53.01
2019-04-01T21:38:30.296Z,53.11
2019-04-01T21:40:56.944Z,53.47
2019-04-01T21:43:23.564Z,53.62
2019-04-01T21:45:50.255Z,53.41
2019-04-01T21:48:17.043Z,53.45
2019-04-01T21:50:43.776Z,54.03
2019-04-01T21:53:10.530Z,53.90
2019-04-01T21:55:37.262Z,54.49
2019-04-01T21:58:04.005Z,54.44
2019-04-01T22:00:47.945Z,54.43
2019-04-01T22:03:14.890Z,54.32
2019-04-01T22:05:43.236Z,55.06
2019-04-01T22:08:10.211Z,55.41
2019-04-01T22:10:37.976Z,55.36
2019-04-01T22:13:04.707Z,56.28
2019-04-01T22:15:31.446Z,56.00
2019-04-01T22:17:58.255Z,57.42
2019-04-01T22:20:25.028Z,57.06
2019-04-01T22:22:51.785Z,56.87
2019-04-01T22:25:19.530Z,57.01
2019-04-01T22:27:46.274Z,57.48
2019-04-01T22:30:13.111Z,57.15
2019-04-01T22:32:39.860Z,57.34
2019-04-01T22:35:08.007Z,57.19
2019-04-01T22:37:37.216Z,57.20
2019-04-01T22:40:05.500Z,57.82
2019-04-01T22:42:32.241Z,57.89
2019-04-01T22:44:58.982Z,58.49
2019-04-01T22:47:25.620Z,58.61
2019-04-01T22:49:52.453Z,58.70
2019-04-01T22:52:19.201Z,58.30
2019-04-01T22:54:45.794Z,58.56
2019-04-01T22:57:12.575Z,58.69
2019-04-01T22:59:39.307Z,58.25
2019-04-01T23:02:06.053Z,58.73
2019-04-01T23:04:32.796Z,58.27
2019-04-01T23:06:59.660Z,58.73
2019-04-01T23:09:26.375Z,58.60
2019-04-01T23:11:53.498Z,58.98
2019-04-01T23:14:20.667Z,59.27
2019-04-01T23:16:47.408Z,59.71
2019-04-01T23:19:14.151Z,60.33
2019-04-01T23:21:41.006Z,60.33
2019-04-01T23:24:07.603Z,59.73
2019-04-01T23:26:34.366Z,59.39
2019-04-01T23:29:01.104Z,59.36
2019-04-01T23:31:27.843Z,59.45
2019-04-01T23:33:54.478Z,59.62
2019-04-01T23:36:21.430Z,59.92
2019-04-01T23:38:48.264Z,60.00
2019-04-01T23:41:15.115Z,59.71
2019-04-01T23:43:41.870Z,59.69
2019-04-01T23:46:08.607Z,59.72
2019-04-01T23:48:35.337Z,60.16
2019-04-01T23:51:02.169Z,59.82
2019-04-01T23:53:28.907Z,59.92
2019-04-01T23:55:55.654Z,59.89
2019-04-01T23:58:22.861Z,59.67
